sensor_id;sensor_type;location;lat;lon;timestamp;P1;durP1;ratioP1;P2;durP2;ratioP2
60468;SDS011;46316;47.582;10.238;2022-07-12T00:03:42;2.15;;;1.80;;
60468;SDS011;46316;47.582;10.238;2022-07-12T00:06:08;2.00;;;1.52;;
60468;SDS011;46316;47.582;10.238;2022-07-12T00:08:34;1.38;;;1.27;;
60468;SDS011;46316;47.582;10.238;2022-07-12T00:10:59;2.35;;;2.00;;
60468;SDS011;46316;47.582;10.238;2022-07-12T00:13:25;3.00;;;2.05;;
60468;SDS011;46316;47.582;10.238;2022-07-12T00:15:50;2.15;;;1.80;;
60468;SDS011;46316;47.582;10.238;2022-07-12T00:18:16;1.60;;;1.50;;
60468;SDS011;46316;47.582;10.238;2022-07-12T00:20:41;3.03;;;1.90;;
60468;SDS011;46316;47.582;10.238;2022-07-12T00:23:07;2.80;;;1.73;;
60468;SDS011;46316;47.582;10.238;2022-07-12T00:25:33;2.47;;;1.65;;
60468;SDS011;46316;47.582;10.238;2022-07-12T00:27:58;1.75;;;1.52;;
60468;SDS011;46316;47.582;10.238;2022-07-12T00:30:24;1.52;;;1.42;;
60468;SDS011;46316;47.582;10.238;2022-07-12T00:32:49;2.90;;;1.75;;
60468;SDS011;46316;47.582;10.238;2022-07-12T00:35:15;1.70;;;1.45;;
60468;SDS011;46316;47.582;10.238;2022-07-12T00:37:41;1.95;;;1.40;;
60468;SDS011;46316;47.582;10.238;2022-07-12T00:40:07;1.80;;;1.70;;
60468;SDS011;46316;47.582;10.238;2022-07-12T00:42:34;1.50;;;1.40;;
60468;SDS011;46316;47.582;10.238;2022-07-12T00:45:01;1.95;;;1.60;;
60468;SDS011;46316;47.582;10.238;2022-07-12T00:49:57;1.70;;;1.60;;
60468;SDS011;46316;47.582;10.238;2022-07-12T00:52:23;1.40;;;1.30;;
60468;SDS011;46316;47.582;10.238;2022-07-12T00:54:49;1.52;;;1.40;;
60468;SDS011;46316;47.582;10.238;2022-07-12T00:57:15;1.58;;;1.48;;
60468;SDS011;46316;47.582;10.238;2022-07-12T00:59:40;1.40;;;1.30;;
60468;SDS011;46316;47.582;10.238;2022-07-12T01:02:06;2.45;;;1.50;;
60468;SDS011;46316;47.582;10.238;2022-07-12T01:04:32;2.70;;;1.73;;
60468;SDS011;46316;47.582;10.238;2022-07-12T01:07:00;1.60;;;1.50;;
60468;SDS011;46316;47.582;10.238;2022-07-12T01:09:26;1.92;;;1.30;;
60468;SDS011;46316;47.582;10.238;2022-07-12T01:11:52;1.60;;;1.40;;
60468;SDS011;46316;47.582;10.238;2022-07-12T01:14:18;1.30;;;1.20;;
60468;SDS011;46316;47.582;10.238;2022-07-12T01:16:44;2.05;;;1.30;;
60468;SDS011;46316;47.582;10.238;2022-07-12T01:19:10;1.30;;;1.20;;
60468;SDS011;46316;47.582;10.238;2022-07-12T01:21:42;4.72;;;1.50;;
60468;SDS011;46316;47.582;10.238;2022-07-12T01:24:11;1.27;;;1.17;;
60468;SDS011;46316;47.582;10.238;2022-07-12T01:26:37;1.48;;;1.38;;
60468;SDS011;46316;47.582;10.238;2022-07-12T01:29:04;2.33;;;1.30;;
60468;SDS011;46316;47.582;10.238;2022-07-12T01:31:31;1.13;;;1.13;;
60468;SDS011;46316;47.582;10.238;2022-07-12T01:33:57;2.78;;;1.30;;
60468;SDS011;46316;47.582;10.238;2022-07-12T01:36:23;1.58;;;1.27;;
60468;SDS011;46316;47.582;10.238;2022-07-12T01:38:48;1.83;;;1.20;;
60468;SDS011;46316;47.582;10.238;2022-07-12T01:41:14;2.97;;;1.50;;
60468;SDS011;46316;47.582;10.238;2022-07-12T01:43:41;2.00;;;1.65;;
60468;SDS011;46316;47.582;10.238;2022-07-12T01:46:07;1.42;;;1.30;;
60468;SDS011;46316;47.582;10.238;2022-07-12T01:48:32;1.17;;;1.15;;
60468;SDS011;46316;47.582;10.238;2022-07-12T01:50:58;2.40;;;1.40;;
60468;SDS011;46316;47.582;10.238;2022-07-12T01:53:23;2.22;;;1.30;;
60468;SDS011;46316;47.582;10.238;2022-07-12T01:55:49;3.30;;;1.50;;
60468;SDS011;46316;47.582;10.238;2022-07-12T01:58:15;1.70;;;1.60;;
60468;SDS011;46316;47.582;10.238;2022-07-12T02:00:41;2.17;;;1.73;;
60468;SDS011;46316;47.582;10.238;2022-07-12T02:03:07;2.45;;;1.58;;
60468;SDS011;46316;47.582;10.238;2022-07-12T02:05:33;3.15;;;1.50;;
60468;SDS011;46316;47.582;10.238;2022-07-12T02:07:59;2.38;;;1.73;;
60468;SDS011;46316;47.582;10.238;2022-07-12T02:10:25;1.52;;;1.42;;
60468;SDS011;46316;47.582;10.238;2022-07-12T02:12:50;2.15;;;1.30;;
60468;SDS011;46316;47.582;10.238;2022-07-12T02:15:16;4.30;;;1.70;;
60468;SDS011;46316;47.582;10.238;2022-07-12T02:17:41;1.70;;;1.60;;
60468;SDS011;46316;47.582;10.238;2022-07-12T02:20:09;1.30;;;1.20;;
60468;SDS011;46316;47.582;10.238;2022-07-12T02:22:37;4.77;;;1.40;;
60468;SDS011;46316;47.582;10.238;2022-07-12T02:25:03;1.70;;;1.38;;
60468;SDS011;46316;47.582;10.238;2022-07-12T02:27:28;1.40;;;1.20;;
60468;SDS011;46316;47.582;10.238;2022-07-12T02:29:54;4.35;;;1.60;;
60468;SDS011;46316;47.582;10.238;2022-07-12T02:32:20;3.45;;;1.30;;
60468;SDS011;46316;47.582;10.238;2022-07-12T02:34:45;2.85;;;1.45;;
60468;SDS011;46316;47.582;10.238;2022-07-12T02:37:11;1.30;;;1.20;;
60468;SDS011;46316;47.582;10.238;2022-07-12T02:39:36;1.45;;;1.35;;
60468;SDS011;46316;47.582;10.238;2022-07-12T02:42:02;1.50;;;1.40;;
60468;SDS011;46316;47.582;10.238;2022-07-12T02:44:28;1.60;;;1.30;;
60468;SDS011;46316;47.582;10.238;2022-07-12T02:46:53;1.88;;;1.40;;
60468;SDS011;46316;47.582;10.238;2022-07-12T02:49:19;4.10;;;1.67;;
60468;SDS011;46316;47.582;10.238;2022-07-12T02:51:44;1.38;;;1.27;;
60468;SDS011;46316;47.582;10.238;2022-07-12T02:54:10;3.65;;;1.80;;
60468;SDS011;46316;47.582;10.238;2022-07-12T02:56:35;1.60;;;1.50;;
60468;SDS011;46316;47.582;10.238;2022-07-12T02:59:01;1.05;;;0.95;;
60468;SDS011;46316;47.582;10.238;2022-07-12T03:01:26;1.52;;;1.42;;
60468;SDS011;46316;47.582;10.238;2022-07-12T03:03:52;1.25;;;1.17;;
60468;SDS011;46316;47.582;10.238;2022-07-12T03:06:17;1.85;;;1.60;;
60468;SDS011;46316;47.582;10.238;2022-07-12T03:08:43;2.28;;;1.40;;
60468;SDS011;46316;47.582;10.238;2022-07-12T03:11:09;1.85;;;1.58;;
60468;SDS011;46316;47.582;10.238;2022-07-12T03:13:34;1.63;;;1.52;;
60468;SDS011;46316;47.582;10.238;2022-07-12T03:16:00;1.38;;;1.27;;
60468;SDS011;46316;47.582;10.238;2022-07-12T03:18:25;3.03;;;1.40;;
60468;SDS011;46316;47.582;10.238;2022-07-12T03:20:51;1.65;;;1.40;;
60468;SDS011;46316;47.582;10.238;2022-07-12T03:23:16;1.58;;;1.40;;
60468;SDS011;46316;47.582;10.238;2022-07-12T03:25:42;1.98;;;1.67;;
60468;SDS011;46316;47.582;10.238;2022-07-12T03:28:08;2.42;;;1.60;;
60468;SDS011;46316;47.582;10.238;2022-07-12T03:30:33;2.00;;;1.80;;
60468;SDS011;46316;47.582;10.238;2022-07-12T03:32:59;1.13;;;1.08;;
60468;SDS011;46316;47.582;10.238;2022-07-12T03:35:24;1.55;;;1.40;;
60468;SDS011;46316;47.582;10.238;2022-07-12T03:37:50;1.38;;;1.23;;
60468;SDS011;46316;47.582;10.238;2022-07-12T03:40:17;1.70;;;1.60;;
60468;SDS011;46316;47.582;10.238;2022-07-12T03:42:44;1.80;;;1.50;;
60468;SDS011;46316;47.582;10.238;2022-07-12T03:45:11;1.67;;;1.58;;
60468;SDS011;46316;47.582;10.238;2022-07-12T03:47:37;2.08;;;1.45;;
60468;SDS011;46316;47.582;10.238;2022-07-12T03:50:04;1.48;;;1.30;;
60468;SDS011;46316;47.582;10.238;2022-07-12T03:52:31;4.10;;;1.73;;
60468;SDS011;46316;47.582;10.238;2022-07-12T03:54:58;2.40;;;1.60;;
60468;SDS011;46316;47.582;10.238;2022-07-12T03:57:24;3.30;;;1.60;;
60468;SDS011;46316;47.582;10.238;2022-07-12T03:59:51;1.80;;;1.45;;
60468;SDS011;46316;47.582;10.238;2022-07-12T04:02:17;1.38;;;1.27;;
60468;SDS011;46316;47.582;10.238;2022-07-12T04:04:42;2.45;;;1.60;;
60468;SDS011;46316;47.582;10.238;2022-07-12T04:07:08;1.88;;;1.60;;
60468;SDS011;46316;47.582;10.238;2022-07-12T04:09:34;1.70;;;1.30;;
60468;SDS011;46316;47.582;10.238;2022-07-12T04:12:00;1.58;;;1.30;;
60468;SDS011;46316;47.582;10.238;2022-07-12T04:14:26;2.25;;;1.50;;
60468;SDS011;46316;47.582;10.238;2022-07-12T04:16:53;1.75;;;1.45;;
60468;SDS011;46316;47.582;10.238;2022-07-12T04:19:19;1.73;;;1.63;;
60468;SDS011;46316;47.582;10.238;2022-07-12T04:21:48;1.67;;;1.10;;
60468;SDS011;46316;47.582;10.238;2022-07-12T04:24:14;15.88;;;8.57;;
60468;SDS011;46316;47.582;10.238;2022-07-12T04:26:40;16.45;;;9.27;;
60468;SDS011;46316;47.582;10.238;2022-07-12T04:29:05;10.75;;;6.68;;
60468;SDS011;46316;47.582;10.238;2022-07-12T04:31:31;4.60;;;3.40;;
60468;SDS011;46316;47.582;10.238;2022-07-12T04:33:57;2.92;;;1.92;;
60468;SDS011;46316;47.582;10.238;2022-07-12T04:36:22;2.33;;;1.77;;
60468;SDS011;46316;47.582;10.238;2022-07-12T04:38:48;2.00;;;1.52;;
60468;SDS011;46316;47.582;10.238;2022-07-12T04:41:13;2.13;;;1.67;;
60468;SDS011;46316;47.582;10.238;2022-07-12T04:43:39;3.05;;;2.33;;
60468;SDS011;46316;47.582;10.238;2022-07-12T04:46:08;3.42;;;2.22;;
60468;SDS011;46316;47.582;10.238;2022-07-12T04:48:34;2.90;;;2.13;;
60468;SDS011;46316;47.582;10.238;2022-07-12T04:51:00;1.83;;;1.58;;
60468;SDS011;46316;47.582;10.238;2022-07-12T04:53:26;1.17;;;1.10;;
60468;SDS011;46316;47.582;10.238;2022-07-12T04:55:53;2.78;;;1.05;;
60468;SDS011;46316;47.582;10.238;2022-07-12T04:58:20;1.10;;;0.98;;
60468;SDS011;46316;47.582;10.238;2022-07-12T05:00:48;3.28;;;1.90;;
60468;SDS011;46316;47.582;10.238;2022-07-12T05:03:14;1.02;;;1.00;;
60468;SDS011;46316;47.582;10.238;2022-07-12T05:05:40;1.00;;;1.00;;
60468;SDS011;46316;47.582;10.238;2022-07-12T05:08:05;1.08;;;1.02;;
60468;SDS011;46316;47.582;10.238;2022-07-12T05:10:31;1.17;;;1.08;;
60468;SDS011;46316;47.582;10.238;2022-07-12T05:13:00;1.10;;;1.00;;
60468;SDS011;46316;47.582;10.238;2022-07-12T05:15:35;1.38;;;1.02;;
60468;SDS011;46316;47.582;10.238;2022-07-12T05:18:01;1.52;;;1.42;;
60468;SDS011;46316;47.582;10.238;2022-07-12T05:20:27;2.33;;;1.30;;
60468;SDS011;46316;47.582;10.238;2022-07-12T05:23:13;4.25;;;1.20;;
60468;SDS011;46316;47.582;10.238;2022-07-12T05:25:39;2.72;;;1.30;;
60468;SDS011;46316;47.582;10.238;2022-07-12T05:28:04;2.97;;;0.90;;
60468;SDS011;46316;47.582;10.238;2022-07-12T05:30:30;1.10;;;1.00;;
60468;SDS011;46316;47.582;10.238;2022-07-12T05:32:56;4.00;;;1.20;;
60468;SDS011;46316;47.582;10.238;2022-07-12T05:35:21;2.70;;;0.80;;
60468;SDS011;46316;47.582;10.238;2022-07-12T05:37:47;2.22;;;0.95;;
60468;SDS011;46316;47.582;10.238;2022-07-12T05:40:13;2.05;;;0.93;;
60468;SDS011;46316;47.582;10.238;2022-07-12T05:42:38;1.65;;;1.00;;
60468;SDS011;46316;47.582;10.238;2022-07-12T05:45:05;4.15;;;1.00;;
60468;SDS011;46316;47.582;10.238;2022-07-12T05:47:40;1.45;;;0.70;;
60468;SDS011;46316;47.582;10.238;2022-07-12T05:50:05;2.63;;;1.20;;
60468;SDS011;46316;47.582;10.238;2022-07-12T05:52:32;4.97;;;0.90;;
60468;SDS011;46316;47.582;10.238;2022-07-12T05:55:16;3.17;;;1.25;;
60468;SDS011;46316;47.582;10.238;2022-07-12T05:57:42;3.00;;;1.17;;
60468;SDS011;46316;47.582;10.238;2022-07-12T06:00:08;6.32;;;1.33;;
60468;SDS011;46316;47.582;10.238;2022-07-12T06:02:34;5.20;;;1.00;;
60468;SDS011;46316;47.582;10.238;2022-07-12T06:04:59;4.38;;;1.30;;
60468;SDS011;46316;47.582;10.238;2022-07-12T06:07:25;3.38;;;1.13;;
60468;SDS011;46316;47.582;10.238;2022-07-12T06:09:51;3.38;;;1.13;;
60468;SDS011;46316;47.582;10.238;2022-07-12T06:12:20;3.97;;;1.30;;
60468;SDS011;46316;47.582;10.238;2022-07-12T06:14:45;1.43;;;1.00;;
60468;SDS011;46316;47.582;10.238;2022-07-12T06:17:14;2.95;;;0.98;;
60468;SDS011;46316;47.582;10.238;2022-07-12T06:19:39;3.63;;;1.25;;
60468;SDS011;46316;47.582;10.238;2022-07-12T06:22:05;1.52;;;0.80;;
60468;SDS011;46316;47.582;10.238;2022-07-12T06:24:31;2.60;;;1.00;;
60468;SDS011;46316;47.582;10.238;2022-07-12T06:26:57;1.33;;;1.05;;
60468;SDS011;46316;47.582;10.238;2022-07-12T06:29:23;1.75;;;1.00;;
60468;SDS011;46316;47.582;10.238;2022-07-12T06:31:49;1.55;;;1.05;;
60468;SDS011;46316;47.582;10.238;2022-07-12T06:34:14;1.25;;;1.17;;
60468;SDS011;46316;47.582;10.238;2022-07-12T06:36:40;1.00;;;0.90;;
60468;SDS011;46316;47.582;10.238;2022-07-12T06:39:08;1.10;;;1.00;;
60468;SDS011;46316;47.582;10.238;2022-07-12T06:41:34;2.17;;;1.13;;
60468;SDS011;46316;47.582;10.238;2022-07-12T06:44:00;2.03;;;1.33;;
60468;SDS011;46316;47.582;10.238;2022-07-12T06:46:25;1.60;;;1.40;;
60468;SDS011;46316;47.582;10.238;2022-07-12T06:48:51;2.67;;;1.40;;
60468;SDS011;46316;47.582;10.238;2022-07-12T06:51:16;1.35;;;1.20;;
60468;SDS011;46316;47.582;10.238;2022-07-12T06:53:42;1.40;;;1.30;;
60468;SDS011;46316;47.582;10.238;2022-07-12T06:56:08;3.50;;;1.20;;
60468;SDS011;46316;47.582;10.238;2022-07-12T06:58:33;3.90;;;1.20;;
60468;SDS011;46316;47.582;10.238;2022-07-12T07:00:59;3.13;;;1.10;;
60468;SDS011;46316;47.582;10.238;2022-07-12T07:03:25;1.65;;;1.10;;
60468;SDS011;46316;47.582;10.238;2022-07-12T07:05:50;2.08;;;1.20;;
60468;SDS011;46316;47.582;10.238;2022-07-12T07:08:16;2.97;;;1.30;;
60468;SDS011;46316;47.582;10.238;2022-07-12T07:10:41;2.92;;;1.50;;
60468;SDS011;46316;47.582;10.238;2022-07-12T07:13:08;3.03;;;1.27;;
60468;SDS011;46316;47.582;10.238;2022-07-12T07:15:35;4.22;;;1.52;;
60468;SDS011;46316;47.582;10.238;2022-07-12T07:18:04;3.15;;;1.85;;
60468;SDS011;46316;47.582;10.238;2022-07-12T07:20:29;1.48;;;1.20;;
60468;SDS011;46316;47.582;10.238;2022-07-12T07:22:55;1.88;;;1.38;;
60468;SDS011;46316;47.582;10.238;2022-07-12T07:25:21;3.65;;;2.00;;
60468;SDS011;46316;47.582;10.238;2022-07-12T07:27:46;1.80;;;1.30;;
60468;SDS011;46316;47.582;10.238;2022-07-12T07:30:12;3.75;;;1.27;;
60468;SDS011;46316;47.582;10.238;2022-07-12T07:32:56;2.70;;;1.42;;
60468;SDS011;46316;47.582;10.238;2022-07-12T07:35:22;1.15;;;1.05;;
60468;SDS011;46316;47.582;10.238;2022-07-12T07:37:47;2.83;;;1.40;;
60468;SDS011;46316;47.582;10.238;2022-07-12T07:40:13;1.38;;;1.13;;
60468;SDS011;46316;47.582;10.238;2022-07-12T07:42:39;1.48;;;1.33;;
60468;SDS011;46316;47.582;10.238;2022-07-12T07:45:05;1.40;;;1.30;;
60468;SDS011;46316;47.582;10.238;2022-07-12T07:47:42;2.30;;;1.40;;
60468;SDS011;46316;47.582;10.238;2022-07-12T07:52:37;2.42;;;1.30;;
60468;SDS011;46316;47.582;10.238;2022-07-12T07:55:03;1.42;;;1.20;;
60468;SDS011;46316;47.582;10.238;2022-07-12T07:57:29;1.25;;;1.15;;
60468;SDS011;46316;47.582;10.238;2022-07-12T07:59:55;1.25;;;1.15;;
60468;SDS011;46316;47.582;10.238;2022-07-12T08:02:20;2.85;;;1.23;;
60468;SDS011;46316;47.582;10.238;2022-07-12T08:04:46;3.15;;;1.73;;
60468;SDS011;46316;47.582;10.238;2022-07-12T08:07:12;1.40;;;1.08;;
60468;SDS011;46316;47.582;10.238;2022-07-12T08:09:38;4.82;;;1.40;;
60468;SDS011;46316;47.582;10.238;2022-07-12T08:12:07;2.55;;;1.50;;
60468;SDS011;46316;47.582;10.238;2022-07-12T08:14:36;3.55;;;1.50;;
60468;SDS011;46316;47.582;10.238;2022-07-12T08:17:40;2.38;;;1.50;;
60468;SDS011;46316;47.582;10.238;2022-07-12T08:20:05;2.97;;;1.40;;
60468;SDS011;46316;47.582;10.238;2022-07-12T08:22:31;1.05;;;1.05;;
60468;SDS011;46316;47.582;10.238;2022-07-12T08:24:57;1.65;;;1.27;;
60468;SDS011;46316;47.582;10.238;2022-07-12T08:27:23;1.17;;;1.08;;
60468;SDS011;46316;47.582;10.238;2022-07-12T08:29:49;1.88;;;1.27;;
60468;SDS011;46316;47.582;10.238;2022-07-12T08:32:15;1.35;;;1.10;;
60468;SDS011;46316;47.582;10.238;2022-07-12T08:34:41;1.70;;;1.48;;
60468;SDS011;46316;47.582;10.238;2022-07-12T08:37:06;1.80;;;1.27;;
60468;SDS011;46316;47.582;10.238;2022-07-12T08:39:33;1.65;;;1.48;;
60468;SDS011;46316;47.582;10.238;2022-07-12T08:41:59;3.83;;;1.35;;
60468;SDS011;46316;47.582;10.238;2022-07-12T08:44:24;3.22;;;1.50;;
60468;SDS011;46316;47.582;10.238;2022-07-12T08:46:59;1.80;;;1.05;;
60468;SDS011;46316;47.582;10.238;2022-07-12T08:49:24;1.17;;;1.00;;
60468;SDS011;46316;47.582;10.238;2022-07-12T08:51:50;1.52;;;1.00;;
60468;SDS011;46316;47.582;10.238;2022-07-12T08:54:15;2.13;;;1.30;;
60468;SDS011;46316;47.582;10.238;2022-07-12T08:56:43;1.50;;;1.25;;
60468;SDS011;46316;47.582;10.238;2022-07-12T09:01:38;1.10;;;1.10;;
60468;SDS011;46316;47.582;10.238;2022-07-12T09:04:09;1.40;;;1.30;;
60468;SDS011;46316;47.582;10.238;2022-07-12T09:06:36;1.35;;;0.98;;
60468;SDS011;46316;47.582;10.238;2022-07-12T09:09:01;1.52;;;1.17;;
60468;SDS011;46316;47.582;10.238;2022-07-12T09:11:27;1.65;;;1.30;;
60468;SDS011;46316;47.582;10.238;2022-07-12T09:13:53;3.28;;;0.98;;
60468;SDS011;46316;47.582;10.238;2022-07-12T09:16:27;3.13;;;1.40;;
60468;SDS011;46316;47.582;10.238;2022-07-12T09:19:14;4.30;;;1.25;;
60468;SDS011;46316;47.582;10.238;2022-07-12T09:22:03;1.67;;;1.02;;
60468;SDS011;46316;47.582;10.238;2022-07-12T09:24:30;0.93;;;0.90;;
60468;SDS011;46316;47.582;10.238;2022-07-12T09:26:57;1.48;;;0.95;;
60468;SDS011;46316;47.582;10.238;2022-07-12T09:29:27;0.90;;;0.90;;
60468;SDS011;46316;47.582;10.238;2022-07-12T09:31:53;1.00;;;1.00;;
60468;SDS011;46316;47.582;10.238;2022-07-12T09:34:38;1.10;;;0.98;;
60468;SDS011;46316;47.582;10.238;2022-07-12T09:37:25;1.00;;;1.00;;
60468;SDS011;46316;47.582;10.238;2022-07-12T09:39:52;1.33;;;1.23;;
60468;SDS011;46316;47.582;10.238;2022-07-12T09:42:19;1.10;;;1.00;;
60468;SDS011;46316;47.582;10.238;2022-07-12T09:44:45;1.33;;;1.02;;
60468;SDS011;46316;47.582;10.238;2022-07-12T09:47:11;1.08;;;1.05;;
60468;SDS011;46316;47.582;10.238;2022-07-12T09:49:41;1.20;;;1.10;;
60468;SDS011;46316;47.582;10.238;2022-07-12T09:52:23;1.80;;;1.00;;
60468;SDS011;46316;47.582;10.238;2022-07-12T09:54:50;2.53;;;1.15;;
60468;SDS011;46316;47.582;10.238;2022-07-12T09:57:26;1.27;;;1.00;;
60468;SDS011;46316;47.582;10.238;2022-07-12T10:00:01;1.13;;;0.95;;
60468;SDS011;46316;47.582;10.238;2022-07-12T10:02:28;1.08;;;1.08;;
60468;SDS011;46316;47.582;10.238;2022-07-12T10:04:54;1.00;;;1.00;;
60468;SDS011;46316;47.582;10.238;2022-07-12T10:07:21;0.77;;;0.77;;
60468;SDS011;46316;47.582;10.238;2022-07-12T10:09:48;0.82;;;0.82;;
60468;SDS011;46316;47.582;10.238;2022-07-12T10:12:17;1.77;;;0.90;;
60468;SDS011;46316;47.582;10.238;2022-07-12T10:14:44;1.90;;;1.08;;
60468;SDS011;46316;47.582;10.238;2022-07-12T10:17:11;0.93;;;0.90;;
60468;SDS011;46316;47.582;10.238;2022-07-12T10:19:38;1.05;;;0.88;;
60468;SDS011;46316;47.582;10.238;2022-07-12T10:22:05;1.10;;;1.00;;
60468;SDS011;46316;47.582;10.238;2022-07-12T10:26:57;1.92;;;1.02;;
60468;SDS011;46316;47.582;10.238;2022-07-12T10:29:23;1.13;;;0.93;;
60468;SDS011;46316;47.582;10.238;2022-07-12T10:31:50;2.40;;;1.15;;
60468;SDS011;46316;47.582;10.238;2022-07-12T10:34:23;1.70;;;1.05;;
60468;SDS011;46316;47.582;10.238;2022-07-12T10:39:25;1.10;;;0.70;;
60468;SDS011;46316;47.582;10.238;2022-07-12T10:44:33;0.80;;;0.80;;
60468;SDS011;46316;47.582;10.238;2022-07-12T10:58:45;1.60;;;0.90;;
60468;SDS011;46316;47.582;10.238;2022-07-12T11:01:12;1.58;;;0.98;;
60468;SDS011;46316;47.582;10.238;2022-07-12T11:06:13;1.13;;;0.93;;
60468;SDS011;46316;47.582;10.238;2022-07-12T11:08:51;0.73;;;0.73;;
60468;SDS011;46316;47.582;10.238;2022-07-12T11:11:25;0.60;;;0.60;;
60468;SDS011;46316;47.582;10.238;2022-07-12T11:14:05;1.05;;;0.73;;
60468;SDS011;46316;47.582;10.238;2022-07-12T11:16:31;2.20;;;0.95;;
60468;SDS011;46316;47.582;10.238;2022-07-12T11:18:57;2.30;;;0.90;;
60468;SDS011;46316;47.582;10.238;2022-07-12T11:21:23;1.40;;;0.77;;
60468;SDS011;46316;47.582;10.238;2022-07-12T11:23:49;1.42;;;1.00;;
60468;SDS011;46316;47.582;10.238;2022-07-12T11:26:16;1.10;;;1.00;;
60468;SDS011;46316;47.582;10.238;2022-07-12T11:28:42;0.60;;;0.60;;
60468;SDS011;46316;47.582;10.238;2022-07-12T11:31:13;0.40;;;0.40;;
60468;SDS011;46316;47.582;10.238;2022-07-12T11:33:44;1.13;;;0.85;;
60468;SDS011;46316;47.582;10.238;2022-07-12T11:36:12;1.20;;;1.10;;
60468;SDS011;46316;47.582;10.238;2022-07-12T11:38:40;1.10;;;1.00;;
60468;SDS011;46316;47.582;10.238;2022-07-12T11:41:07;2.10;;;1.25;;
60468;SDS011;46316;47.582;10.238;2022-07-12T11:43:34;2.05;;;1.20;;
60468;SDS011;46316;47.582;10.238;2022-07-12T11:46:01;1.83;;;1.02;;
60468;SDS011;46316;47.582;10.238;2022-07-12T11:48:28;4.07;;;1.20;;
60468;SDS011;46316;47.582;10.238;2022-07-12T11:51:00;2.30;;;1.02;;
60468;SDS011;46316;47.582;10.238;2022-07-12T11:53:29;1.67;;;1.10;;
60468;SDS011;46316;47.582;10.238;2022-07-12T11:55:56;1.10;;;1.10;;
60468;SDS011;46316;47.582;10.238;2022-07-12T11:58:23;2.45;;;1.10;;
60468;SDS011;46316;47.582;10.238;2022-07-12T12:00:49;1.23;;;1.13;;
60468;SDS011;46316;47.582;10.238;2022-07-12T12:03:16;1.23;;;1.00;;
60468;SDS011;46316;47.582;10.238;2022-07-12T12:05:43;1.02;;;1.02;;
60468;SDS011;46316;47.582;10.238;2022-07-12T12:08:13;2.75;;;1.30;;
60468;SDS011;46316;47.582;10.238;2022-07-12T12:10:40;1.30;;;1.20;;
60468;SDS011;46316;47.582;10.238;2022-07-12T12:13:12;2.22;;;1.20;;
60468;SDS011;46316;47.582;10.238;2022-07-12T12:15:40;5.03;;;1.08;;
60468;SDS011;46316;47.582;10.238;2022-07-12T12:18:07;2.75;;;1.23;;
60468;SDS011;46316;47.582;10.238;2022-07-12T12:20:40;1.42;;;1.08;;
60468;SDS011;46316;47.582;10.238;2022-07-12T12:23:18;1.50;;;1.20;;
60468;SDS011;46316;47.582;10.238;2022-07-12T12:25:45;1.52;;;1.20;;
60468;SDS011;46316;47.582;10.238;2022-07-12T12:28:11;0.80;;;0.80;;
60468;SDS011;46316;47.582;10.238;2022-07-12T12:30:47;1.45;;;1.00;;
60468;SDS011;46316;47.582;10.238;2022-07-12T12:36:12;1.20;;;1.10;;
60468;SDS011;46316;47.582;10.238;2022-07-12T12:38:41;1.08;;;0.98;;
60468;SDS011;46316;47.582;10.238;2022-07-12T12:41:08;2.05;;;1.10;;
60468;SDS011;46316;47.582;10.238;2022-07-12T12:43:34;0.80;;;0.77;;
60468;SDS011;46316;47.582;10.238;2022-07-12T12:46:00;1.20;;;1.10;;
60468;SDS011;46316;47.582;10.238;2022-07-12T12:48:30;4.10;;;1.20;;
60468;SDS011;46316;47.582;10.238;2022-07-12T12:51:07;1.48;;;1.13;;
60468;SDS011;46316;47.582;10.238;2022-07-12T12:53:33;1.08;;;1.00;;
60468;SDS011;46316;47.582;10.238;2022-07-12T12:55:59;1.17;;;1.08;;
60468;SDS011;46316;47.582;10.238;2022-07-12T12:58:25;1.13;;;1.02;;
60468;SDS011;46316;47.582;10.238;2022-07-12T13:00:52;1.20;;;1.10;;
60468;SDS011;46316;47.582;10.238;2022-07-12T13:03:19;1.10;;;1.00;;
60468;SDS011;46316;47.582;10.238;2022-07-12T13:05:47;1.00;;;1.00;;
60468;SDS011;46316;47.582;10.238;2022-07-12T13:08:13;1.10;;;0.90;;
60468;SDS011;46316;47.582;10.238;2022-07-12T13:10:41;1.27;;;0.82;;
60468;SDS011;46316;47.582;10.238;2022-07-12T13:13:08;1.17;;;1.08;;
60468;SDS011;46316;47.582;10.238;2022-07-12T13:15:34;1.60;;;1.27;;
60468;SDS011;46316;47.582;10.238;2022-07-12T13:18:02;1.50;;;1.02;;
60468;SDS011;46316;47.582;10.238;2022-07-12T13:20:30;1.23;;;1.13;;
60468;SDS011;46316;47.582;10.238;2022-07-12T13:22:56;1.92;;;1.10;;
60468;SDS011;46316;47.582;10.238;2022-07-12T13:25:22;1.35;;;1.05;;
60468;SDS011;46316;47.582;10.238;2022-07-12T13:27:48;1.25;;;1.10;;
60468;SDS011;46316;47.582;10.238;2022-07-12T13:30:15;1.40;;;1.30;;
60468;SDS011;46316;47.582;10.238;2022-07-12T13:32:41;1.27;;;1.02;;
60468;SDS011;46316;47.582;10.238;2022-07-12T13:35:08;2.75;;;1.55;;
60468;SDS011;46316;47.582;10.238;2022-07-12T13:37:35;1.45;;;1.27;;
60468;SDS011;46316;47.582;10.238;2022-07-12T13:40:02;1.50;;;1.30;;
60468;SDS011;46316;47.582;10.238;2022-07-12T13:42:42;1.40;;;1.20;;
60468;SDS011;46316;47.582;10.238;2022-07-12T13:45:11;1.55;;;1.20;;
60468;SDS011;46316;47.582;10.238;2022-07-12T13:47:39;1.20;;;1.10;;
60468;SDS011;46316;47.582;10.238;2022-07-12T13:50:05;2.13;;;1.08;;
60468;SDS011;46316;47.582;10.238;2022-07-12T13:52:31;1.40;;;1.30;;
60468;SDS011;46316;47.582;10.238;2022-07-12T13:54:57;3.35;;;1.25;;
60468;SDS011;46316;47.582;10.238;2022-07-12T13:57:23;1.30;;;1.20;;
60468;SDS011;46316;47.582;10.238;2022-07-12T13:59:48;1.35;;;1.20;;
60468;SDS011;46316;47.582;10.238;2022-07-12T14:02:15;1.73;;;1.10;;
60468;SDS011;46316;47.582;10.238;2022-07-12T14:04:40;1.30;;;1.20;;
60468;SDS011;46316;47.582;10.238;2022-07-12T14:07:06;1.90;;;1.25;;
60468;SDS011;46316;47.582;10.238;2022-07-12T14:09:32;1.20;;;1.10;;
60468;SDS011;46316;47.582;10.238;2022-07-12T14:11:57;4.03;;;1.27;;
60468;SDS011;46316;47.582;10.238;2022-07-12T14:14:23;2.67;;;1.13;;
60468;SDS011;46316;47.582;10.238;2022-07-12T14:17:07;1.05;;;1.00;;
60468;SDS011;46316;47.582;10.238;2022-07-12T14:19:33;1.90;;;1.30;;
60468;SDS011;46316;47.582;10.238;2022-07-12T14:21:59;1.65;;;1.25;;
60468;SDS011;46316;47.582;10.238;2022-07-12T14:24:24;1.27;;;1.17;;
60468;SDS011;46316;47.582;10.238;2022-07-12T14:26:50;1.52;;;1.20;;
60468;SDS011;46316;47.582;10.238;2022-07-12T14:29:15;1.30;;;1.20;;
60468;SDS011;46316;47.582;10.238;2022-07-12T14:31:41;1.25;;;1.15;;
60468;SDS011;46316;47.582;10.238;2022-07-12T14:34:06;1.88;;;1.60;;
60468;SDS011;46316;47.582;10.238;2022-07-12T14:36:32;1.75;;;1.10;;
60468;SDS011;46316;47.582;10.238;2022-07-12T14:38:58;4.00;;;1.30;;
60468;SDS011;46316;47.582;10.238;2022-07-12T14:41:24;1.40;;;1.30;;
60468;SDS011;46316;47.582;10.238;2022-07-12T14:43:49;1.40;;;1.30;;
60468;SDS011;46316;47.582;10.238;2022-07-12T14:46:15;1.20;;;1.10;;
60468;SDS011;46316;47.582;10.238;2022-07-12T14:48:41;1.35;;;1.25;;
60468;SDS011;46316;47.582;10.238;2022-07-12T14:51:08;1.25;;;1.10;;
60468;SDS011;46316;47.582;10.238;2022-07-12T14:53:33;1.40;;;1.30;;
60468;SDS011;46316;47.582;10.238;2022-07-12T14:55:59;1.08;;;1.05;;
60468;SDS011;46316;47.582;10.238;2022-07-12T14:58:25;1.83;;;1.05;;
60468;SDS011;46316;47.582;10.238;2022-07-12T15:00:51;2.47;;;1.40;;
60468;SDS011;46316;47.582;10.238;2022-07-12T15:03:17;1.23;;;1.13;;
60468;SDS011;46316;47.582;10.238;2022-07-12T15:05:42;2.95;;;1.27;;
60468;SDS011;46316;47.582;10.238;2022-07-12T15:08:08;1.42;;;1.10;;